Airport details for: EDDH (Germany)

Metar

EDDH 231620Z 29016G27KT 260V320 9999 FEW025 17/12 Q1015 NOSIG

General details

ICAO: EDDH
IATA: HAM
Name (city): Hamburg
Major:
Country: Germany
vACC: vACC Germany
Description:
Scenery links:
FS9 scenery:
FSX/P3D scenery:
XP scenery:
Elevation: 53 ft.
Transition altitude: 5000 ft.
MSA: 12000 ft.
Latitude: 53.630389
Longitude: 9.988228
EDDH Charts
EDDH Notams
EDDH Online stations

Runways

Number Course Length Elevation Lat Lon ILS ILS freq ILS FAC GP
05 49° 10663ft / 3250 m 32ft 53.619958 9.967167 110.5 49° 3.0°
15 151° 12028ft / 3666 m 53ft 53.654411 9.975211 111.35 151° 3.0°
23 229° 10663ft / 3250 m 43ft 53.636011 9.999656 111.5 229° 3.0°
33 331° 12028ft / 3666 m 35ft 53.628681 9.997447 109.9 331° 0.0°